createdAt,value
2023-07-03T00:01:47.095Z,17.73
2023-07-03T00:04:19.703Z,17.58
2023-07-03T00:06:52.166Z,17.60
2023-07-03T00:09:24.499Z,17.60
2023-07-03T00:11:56.864Z,17.58
2023-07-03T00:14:29.228Z,17.64
2023-07-03T00:17:02.741Z,17.70
2023-07-03T00:22:33.337Z,17.67
2023-07-03T00:25:07.286Z,17.69
2023-07-03T00:27:39.672Z,17.76
2023-07-03T00:30:13.722Z,17.70
2023-07-03T00:32:46.050Z,17.59
2023-07-03T00:35:18.421Z,17.66
2023-07-03T00:37:51.716Z,17.61
2023-07-03T00:47:01.510Z,17.54
2023-07-03T00:49:34.015Z,17.55
2023-07-03T00:52:08.245Z,17.52
2023-07-03T00:54:40.588Z,17.53
2023-07-03T00:57:14.413Z,17.53
2023-07-03T00:59:46.803Z,17.56
2023-07-03T01:02:26.198Z,17.53
2023-07-03T01:07:47.680Z,17.50
2023-07-03T01:10:22.630Z,17.26
2023-07-03T01:12:59.620Z,17.25
2023-07-03T01:15:35.032Z,17.35
2023-07-03T01:18:08.362Z,17.40
2023-07-03T01:20:49.042Z,17.41
2023-07-03T01:23:27.378Z,17.42
2023-07-03T01:47:59.955Z,17.04
2023-07-03T01:58:47.116Z,17.11
2023-07-03T02:01:25.865Z,17.13
2023-07-03T02:04:04.978Z,17.17
2023-07-03T02:06:41.778Z,17.11
2023-07-03T02:09:14.734Z,17.15
2023-07-03T02:11:53.547Z,17.22
2023-07-03T02:14:27.486Z,17.26
2023-07-03T02:24:52.245Z,17.11
2023-07-03T02:27:24.725Z,17.22
2023-07-03T02:29:57.081Z,17.08
2023-07-03T02:32:33.909Z,17.07
2023-07-03T02:35:08.178Z,17.16
2023-07-03T02:37:40.681Z,17.18
2023-07-03T02:40:14.268Z,17.25
2023-07-03T02:49:28.060Z,17.22
2023-07-03T02:52:01.977Z,17.33
2023-07-03T02:54:37.596Z,17.20
2023-07-03T02:57:11.466Z,17.27
2023-07-03T02:59:43.856Z,17.34
2023-07-03T03:02:16.739Z,17.36
2023-07-03T03:04:50.069Z,17.40
2023-07-03T03:11:20.900Z,17.47
2023-07-03T03:13:56.663Z,17.50
2023-07-03T03:16:29.160Z,17.55
2023-07-03T03:19:02.275Z,17.61
2023-07-03T03:21:35.244Z,17.67
2023-07-03T03:24:07.855Z,17.69
2023-07-03T03:29:29.140Z,17.77
2023-07-03T03:32:02.105Z,17.51
2023-07-03T03:34:35.332Z,17.51
2023-07-03T03:37:07.874Z,17.63
2023-07-03T03:39:40.247Z,17.71
2023-07-03T03:42:13.756Z,17.77
2023-07-03T03:44:46.948Z,17.84
2023-07-03T03:50:02.387Z,17.84
2023-07-03T03:52:38.062Z,17.97
2023-07-03T03:55:10.536Z,18.00
2023-07-03T03:57:42.832Z,18.03
2023-07-03T04:00:20.500Z,18.04
2023-07-03T04:02:53.300Z,18.05
2023-07-03T04:05:26.619Z,18.08
2023-07-03T04:11:49.544Z,18.10
2023-07-03T04:14:22.048Z,18.29
2023-07-03T04:16:58.606Z,18.28
2023-07-03T04:19:31.062Z,18.27
2023-07-03T04:22:03.511Z,18.36
2023-07-03T04:24:35.826Z,18.35
2023-07-03T04:27:08.927Z,18.33
2023-07-03T04:38:50.974Z,18.43
2023-07-03T04:41:24.315Z,18.48
2023-07-03T04:44:01.973Z,18.45
2023-07-03T04:46:35.368Z,18.55
2023-07-03T04:49:08.805Z,18.56
2023-07-03T04:51:42.103Z,18.67
2023-07-03T04:54:15.325Z,18.71
2023-07-03T05:02:08.360Z,18.87
2023-07-03T05:04:40.843Z,18.87
2023-07-03T05:07:13.387Z,18.95
2023-07-03T05:09:46.269Z,19.01
2023-07-03T05:12:18.577Z,19.03
2023-07-03T05:14:50.896Z,19.05
2023-07-03T05:17:24.037Z,19.11
2023-07-03T05:22:41.354Z,19.19
2023-07-03T05:25:15.327Z,19.26
2023-07-03T05:27:48.209Z,19.09
2023-07-03T05:30:20.694Z,19.22
2023-07-03T05:32:53.057Z,19.36
2023-07-03T05:35:26.166Z,19.48
2023-07-03T05:42:11.181Z,19.39
2023-07-03T05:44:44.221Z,19.61
2023-07-03T05:47:17.466Z,19.78
2023-07-03T05:49:49.934Z,19.94
2023-07-03T05:52:22.357Z,20.10
2023-07-03T05:54:54.717Z,20.23
2023-07-03T05:57:27.672Z,20.38
2023-07-03T06:03:59.084Z,20.82
2023-07-03T06:06:32.847Z,20.92
2023-07-03T06:09:05.140Z,21.00
2023-07-03T06:11:37.510Z,21.11
2023-07-03T06:14:15.963Z,21.27
2023-07-03T06:16:50.146Z,21.25
2023-07-03T06:19:23.256Z,21.36
2023-07-03T06:25:30.829Z,21.61
2023-07-03T06:28:03.550Z,21.65
2023-07-03T06:30:35.942Z,21.80
2023-07-03T06:33:08.340Z,21.93
2023-07-03T06:35:40.746Z,21.93
2023-07-03T06:38:13.121Z,21.96
2023-07-03T06:40:55.749Z,22.15
2023-07-03T06:46:17.839Z,22.60
2023-07-03T06:48:50.498Z,22.73
2023-07-03T06:51:23.011Z,22.68
2023-07-03T06:53:55.338Z,22.83
2023-07-03T06:56:29.145Z,23.06
2023-07-03T06:59:01.800Z,23.13
2023-07-03T07:01:34.820Z,23.24
2023-07-03T07:06:56.828Z,23.25
2023-07-03T07:09:29.272Z,23.52
2023-07-03T07:12:02.077Z,23.89
2023-07-03T07:14:34.400Z,24.16
2023-07-03T07:17:06.826Z,24.46
2023-07-03T07:19:39.308Z,24.35
2023-07-03T07:22:12.292Z,24.72
2023-07-03T07:31:22.369Z,25.12
2023-07-03T07:33:55.278Z,24.87
2023-07-03T07:36:27.814Z,24.99
2023-07-03T07:39:02.607Z,25.18
2023-07-03T07:41:36.073Z,25.34
2023-07-03T07:44:08.401Z,25.65
2023-07-03T07:49:23.987Z,25.95
2023-07-03T07:51:57.578Z,26.04
2023-07-03T07:54:29.867Z,25.71
2023-07-03T07:57:02.244Z,26.11
2023-07-03T07:59:34.902Z,25.89
2023-07-03T08:02:08.036Z,25.74
2023-07-03T08:04:41.197Z,25.57
2023-07-03T08:14:26.980Z,25.74
2023-07-03T08:16:59.491Z,25.70
2023-07-03T08:19:31.833Z,25.87
2023-07-03T08:22:04.607Z,26.08
2023-07-03T08:24:36.941Z,25.94
2023-07-03T08:27:09.304Z,25.90
2023-07-03T08:29:42.317Z,25.53
2023-07-03T08:37:39.916Z,25.75
2023-07-03T08:40:17.648Z,25.56
2023-07-03T08:42:53.807Z,25.88
2023-07-03T08:45:34.233Z,25.82
2023-07-03T08:48:10.417Z,25.93
2023-07-03T08:50:46.164Z,26.14
2023-07-03T08:56:08.400Z,26.29
2023-07-03T08:58:41.159Z,26.60
2023-07-03T09:01:21.480Z,26.73
2023-07-03T09:04:08.011Z,26.73
2023-07-03T09:06:47.615Z,26.47
2023-07-03T09:09:24.190Z,26.42
2023-07-03T09:12:03.380Z,26.27
2023-07-03T09:22:33.529Z,26.44
2023-07-03T09:25:11.500Z,26.36
2023-07-03T09:27:46.016Z,26.23
2023-07-03T09:30:19.750Z,26.56
2023-07-03T09:32:52.115Z,26.90
2023-07-03T09:35:26.791Z,27.11
2023-07-03T09:38:01.910Z,27.10
2023-07-03T09:49:29.075Z,27.69
2023-07-03T09:52:02.090Z,27.68
2023-07-03T09:54:39.890Z,27.77
2023-07-03T09:57:25.801Z,27.68
2023-07-03T10:00:11.110Z,27.51
2023-07-03T10:15:56.169Z,27.41
2023-07-03T10:18:33.056Z,27.38
2023-07-03T10:21:09.530Z,27.58
2023-07-03T10:23:43.484Z,27.32
2023-07-03T10:26:21.237Z,27.55
2023-07-03T10:28:59.171Z,27.27
2023-07-03T10:31:38.160Z,27.60
2023-07-03T10:42:08.837Z,27.81
2023-07-03T10:44:43.068Z,27.90
2023-07-03T10:47:24.026Z,27.67
2023-07-03T10:49:57.680Z,27.99
2023-07-03T10:52:36.802Z,28.08
2023-07-03T10:55:17.486Z,28.32
2023-07-03T11:04:39.030Z,28.65
2023-07-03T11:07:20.530Z,28.87
2023-07-03T11:10:01.874Z,28.97
2023-07-03T11:12:42.166Z,28.87
2023-07-03T11:15:27.800Z,28.68
2023-07-03T11:24:18.801Z,28.05
2023-07-03T11:29:35.908Z,28.09
2023-07-03T11:32:09.674Z,28.08
2023-07-03T11:40:35.619Z,27.91
2023-07-03T11:48:56.140Z,27.84
2023-07-03T11:51:32.716Z,27.82
2023-07-03T11:54:22.750Z,27.83
2023-07-03T11:56:57.280Z,27.93
2023-07-03T11:59:36.134Z,28.00
2023-07-03T12:02:45.189Z,28.14
2023-07-03T12:11:07.591Z,28.70
2023-07-03T12:14:01.619Z,28.83
2023-07-03T12:16:35.631Z,28.78
2023-07-03T12:19:10.752Z,28.71
2023-07-03T12:21:46.817Z,28.73
2023-07-03T12:24:29.909Z,29.03
2023-07-03T12:27:05.642Z,29.23
2023-07-03T12:35:11.265Z,28.79
2023-07-03T12:37:45.886Z,28.88
2023-07-03T12:40:19.805Z,28.71
2023-07-03T12:42:54.728Z,28.67
2023-07-03T12:45:28.907Z,28.62
2023-07-03T12:48:02.582Z,28.45
2023-07-03T12:50:46.029Z,28.23
2023-07-03T12:56:10.401Z,27.57
2023-07-03T12:58:42.875Z,27.70
2023-07-03T13:01:15.991Z,27.72
2023-07-03T13:03:48.576Z,27.65
2023-07-03T13:06:23.976Z,27.48
2023-07-03T13:08:58.460Z,27.51
2023-07-03T13:11:34.295Z,27.39
2023-07-03T13:19:31.441Z,27.04
2023-07-03T13:22:08.005Z,27.11
2023-07-03T13:24:43.886Z,27.19
2023-07-03T13:27:20.979Z,27.20
2023-07-03T13:29:58.265Z,26.99
2023-07-03T13:32:30.639Z,26.87
2023-07-03T13:35:06.233Z,26.84
2023-07-03T13:37:39.058Z,26.92
2023-07-03T13:45:32.718Z,27.11
2023-07-03T13:48:06.465Z,27.02
2023-07-03T13:50:38.817Z,26.83
2023-07-03T13:53:11.194Z,26.83
2023-07-03T13:55:43.519Z,26.81
2023-07-03T13:58:16.581Z,26.68
2023-07-03T14:00:49.633Z,26.75
2023-07-03T14:06:13.242Z,26.80
2023-07-03T14:08:45.730Z,26.90
2023-07-03T14:11:18.550Z,26.92
2023-07-03T14:13:51.065Z,26.58
2023-07-03T14:16:23.679Z,26.49
2023-07-03T14:18:56.141Z,26.42
2023-07-03T14:21:29.398Z,26.37
2023-07-03T14:26:51.941Z,26.13
2023-07-03T14:29:24.812Z,26.23
2023-07-03T14:31:58.204Z,26.33
2023-07-03T14:34:30.720Z,26.35
2023-07-03T14:37:04.652Z,26.52
2023-07-03T14:39:37.003Z,26.54
2023-07-03T14:42:10.019Z,26.45
2023-07-03T14:51:33.757Z,26.44
2023-07-03T14:54:06.264Z,26.48
2023-07-03T14:56:38.671Z,26.51
2023-07-03T14:59:10.995Z,26.54
2023-07-03T15:01:44.455Z,26.56
2023-07-03T15:04:17.094Z,26.51
2023-07-03T15:06:50.241Z,26.53
2023-07-03T15:13:30.056Z,26.57
2023-07-03T15:16:02.653Z,26.60
2023-07-03T15:18:35.043Z,26.70
2023-07-03T15:21:07.327Z,26.72
2023-07-03T15:23:39.620Z,26.89
2023-07-03T15:26:11.998Z,26.74
2023-07-03T15:28:44.965Z,26.75
2023-07-03T15:34:55.367Z,26.68
2023-07-03T15:37:27.810Z,26.73
2023-07-03T15:40:00.222Z,26.75
2023-07-03T15:42:33.423Z,26.90
2023-07-03T15:45:07.124Z,27.05
2023-07-03T15:47:39.583Z,27.07
2023-07-03T15:50:12.704Z,27.08
2023-07-03T15:56:36.786Z,26.78
2023-07-03T15:59:10.138Z,26.75
2023-07-03T16:01:43.099Z,26.74
2023-07-03T16:04:15.477Z,26.81
2023-07-03T16:06:47.936Z,26.80
2023-07-03T16:09:20.246Z,26.73
2023-07-03T16:12:00.263Z,26.52
2023-07-03T16:18:07.012Z,26.35
2023-07-03T16:20:39.595Z,26.38
2023-07-03T16:23:11.961Z,26.16
2023-07-03T16:25:49.849Z,26.24
2023-07-03T16:28:22.472Z,26.04
2023-07-03T16:30:59.946Z,26.08
2023-07-03T16:33:35.985Z,26.02
2023-07-03T16:39:24.009Z,26.00
2023-07-03T16:41:56.518Z,25.92
2023-07-03T16:44:28.853Z,25.97
2023-07-03T16:47:01.435Z,25.89
2023-07-03T16:49:33.804Z,25.62
2023-07-03T16:52:06.675Z,25.48
2023-07-03T16:54:39.753Z,25.42
2023-07-03T17:00:01.681Z,25.46
2023-07-03T17:02:34.827Z,25.45
2023-07-03T17:05:07.588Z,25.36
2023-07-03T17:07:41.377Z,25.35
2023-07-03T17:10:13.721Z,25.42
2023-07-03T17:12:46.198Z,25.43
2023-07-03T17:15:19.164Z,25.36
2023-07-03T17:17:51.541Z,25.22
2023-07-03T17:28:46.832Z,25.07
2023-07-03T17:31:24.190Z,24.97
2023-07-03T17:33:57.000Z,24.87
2023-07-03T17:36:29.455Z,24.92
2023-07-03T17:39:03.559Z,24.93
2023-07-03T17:41:39.106Z,24.83
2023-07-03T17:44:15.301Z,24.78
2023-07-03T17:54:39.771Z,24.62
2023-07-03T17:57:12.312Z,24.58
2023-07-03T17:59:44.999Z,24.55
2023-07-03T18:02:17.375Z,24.56
2023-07-03T18:04:49.746Z,24.56
2023-07-03T18:07:22.227Z,24.49
2023-07-03T18:09:55.299Z,24.49
2023-07-03T18:19:05.666Z,24.33
2023-07-03T18:21:38.449Z,24.23
2023-07-03T18:24:11.086Z,24.19
2023-07-03T18:26:43.395Z,24.17
2023-07-03T18:29:15.755Z,24.17
2023-07-03T18:31:48.119Z,24.21
2023-07-03T18:34:21.599Z,24.21
2023-07-03T18:42:07.932Z,24.07
2023-07-03T18:44:40.398Z,24.06
2023-07-03T18:47:12.999Z,23.98
2023-07-03T18:49:45.369Z,23.93
2023-07-03T18:52:17.746Z,23.86
2023-07-03T18:54:50.623Z,23.84
2023-07-03T18:57:23.570Z,23.79
2023-07-03T19:02:45.413Z,23.65
2023-07-03T19:05:17.917Z,23.64
2023-07-03T19:07:50.193Z,23.61
2023-07-03T19:10:22.627Z,23.59
2023-07-03T19:12:54.926Z,23.54
2023-07-03T19:15:27.277Z,23.52
2023-07-03T19:18:00.343Z,23.46
2023-07-03T19:27:02.909Z,23.36
2023-07-03T19:29:35.792Z,23.31
2023-07-03T19:32:08.708Z,23.25
2023-07-03T19:34:44.201Z,23.22
2023-07-03T19:37:16.516Z,23.13
2023-07-03T19:39:49.301Z,23.18
2023-07-03T19:42:22.377Z,23.18
2023-07-03T19:48:50.528Z,23.10
2023-07-03T19:51:23.229Z,22.99
2023-07-03T19:53:55.583Z,22.92
2023-07-03T19:56:28.186Z,22.89
2023-07-03T19:59:00.521Z,22.70
2023-07-03T20:01:32.968Z,22.64
2023-07-03T20:04:06.859Z,22.62
2023-07-03T20:10:22.304Z,22.61
2023-07-03T20:12:54.732Z,22.57
2023-07-03T20:15:27.043Z,22.47
2023-07-03T20:17:59.568Z,22.42
2023-07-03T20:20:31.923Z,22.38
2023-07-03T20:23:04.233Z,22.39
2023-07-03T20:25:37.238Z,22.16
2023-07-03T20:30:52.852Z,21.96
2023-07-03T20:33:25.602Z,21.91
2023-07-03T20:35:58.729Z,21.81
2023-07-03T20:38:31.529Z,21.72
2023-07-03T20:41:06.979Z,21.61
2023-07-03T20:43:41.204Z,21.53
2023-07-03T20:49:09.893Z,21.23
2023-07-03T20:51:42.440Z,21.17
2023-07-03T20:54:33.173Z,21.11
2023-07-03T20:57:05.953Z,21.03
2023-07-03T20:59:38.293Z,21.05
2023-07-03T21:02:10.727Z,21.01
2023-07-03T21:04:43.701Z,20.87
2023-07-03T21:12:25.711Z,20.72
2023-07-03T21:14:58.310Z,20.73
2023-07-03T21:17:30.682Z,20.66
2023-07-03T21:20:04.180Z,20.56
2023-07-03T21:22:36.534Z,20.47
2023-07-03T21:25:09.468Z,20.41
2023-07-03T21:27:43.776Z,20.30
2023-07-03T21:37:02.973Z,20.05
2023-07-03T21:39:35.443Z,19.99
2023-07-03T21:42:07.761Z,19.87
2023-07-03T21:44:40.075Z,19.85
2023-07-03T21:47:13.500Z,19.81
2023-07-03T21:49:48.709Z,19.76
2023-07-03T21:52:21.800Z,19.70
2023-07-03T22:02:34.621Z,19.54
2023-07-03T22:05:08.730Z,19.50
2023-07-03T22:07:41.112Z,19.40
2023-07-03T22:10:13.456Z,19.41
2023-07-03T22:12:45.779Z,19.37
2023-07-03T22:15:18.202Z,19.39
2023-07-03T22:17:52.320Z,19.42
2023-07-03T22:24:02.666Z,19.36
2023-07-03T22:26:35.464Z,19.38
2023-07-03T22:29:07.770Z,19.32
2023-07-03T22:31:40.135Z,19.32
2023-07-03T22:34:13.570Z,19.28
2023-07-03T22:36:46.131Z,19.26
2023-07-03T22:39:19.087Z,19.25
2023-07-03T22:49:54.192Z,19.02
2023-07-03T22:52:26.886Z,19.04
2023-07-03T22:55:00.493Z,18.87
2023-07-03T22:57:32.924Z,18.84
2023-07-03T23:00:11.382Z,18.80
2023-07-03T23:03:02.443Z,18.77
2023-07-03T23:05:41.787Z,18.70
2023-07-03T23:16:11.900Z,18.68
2023-07-03T23:18:44.974Z,18.49
2023-07-03T23:21:17.368Z,18.39
2023-07-03T23:23:49.696Z,18.34
2023-07-03T23:26:24.913Z,18.37
2023-07-03T23:28:57.236Z,18.40
2023-07-03T23:31:30.422Z,18.42
2023-07-03T23:36:52.591Z,18.38
2023-07-03T23:39:26.698Z,18.38
2023-07-03T23:41:58.999Z,18.28
2023-07-03T23:44:31.298Z,18.23
2023-07-03T23:47:04.936Z,18.19
2023-07-03T23:49:37.759Z,18.17
2023-07-03T23:52:12.984Z,18.20
2023-07-03T23:57:59.220Z,18.21
